Time;durP1;ratioP1;P1;durP2;ratioP2;P2;SDS_P1;SDS_P2;PMS_P1;PMS_P2;Temp;Humidity;BMP_temperature;BMP_pressure;BME280_temperature;BME280_humidity;BME280_pressure;Samples;Min_cycle;Max_cycle;Signal;HPM_P1;HPM_P2
2022/08/09 00:01:04;;;;;;;25.12;12.10;;;;;;;21.60;100.00;99764.44;1788379;80;21029;-77
2022/08/09 00:03:31;;;;;;;23.55;13.32;;;;;;;21.56;100.00;99759.98;1786413;80;21542;-80
2022/08/09 00:05:59;;;;;;;30.97;17.62;;;;;;;21.52;100.00;99741.50;1785321;80;21013;-80
2022/08/09 00:08:25;;;;;;;35.20;21.55;;;;;;;21.48;100.00;99739.80;1785589;80;21458;-80
2022/08/09 00:10:52;;;;;;;39.13;22.85;;;;;;;21.45;100.00;99734.75;1785227;80;21035;-80
2022/08/09 00:13:19;;;;;;;34.08;21.80;;;;;;;21.42;100.00;99726.47;1785315;80;21024;-80
2022/08/09 00:15:46;;;;;;;36.15;20.82;;;;;;;21.41;100.00;99719.84;1785349;80;21502;-79
2022/08/09 00:18:13;;;;;;;33.55;20.30;;;;;;;21.37;100.00;99716.77;1785444;80;21012;-80
2022/08/09 00:20:40;;;;;;;32.35;19.40;;;;;;;21.34;100.00;99706.80;1785287;80;21037;-80
2022/08/09 00:23:06;;;;;;;30.32;18.80;;;;;;;21.33;100.00;99699.62;1785503;80;21508;-80
2022/08/09 00:25:34;;;;;;;31.42;17.32;;;;;;;21.30;100.00;99700.97;1785156;80;21067;-80
2022/08/09 00:28:00;;;;;;;26.23;15.88;;;;;;;21.28;100.00;99689.37;1785469;80;20961;-79
2022/08/09 00:30:27;;;;;;;25.43;15.43;;;;;;;21.25;100.00;99684.39;1785546;80;21494;-79
2022/08/09 00:32:53;;;;;;;28.05;14.58;;;;;;;21.22;100.00;99687.08;1785417;80;20965;-79
2022/08/09 00:35:20;;;;;;;24.23;14.40;;;;;;;21.21;100.00;99679.08;1783213;80;21008;-79
2022/08/09 00:37:47;;;;;;;22.58;13.85;;;;;;;21.18;100.00;99668.05;1766096;81;21511;-79
2022/08/09 00:40:14;;;;;;;23.47;13.35;;;;;;;21.17;100.00;99666.92;1768671;81;21048;-79
2022/08/09 00:42:40;;;;;;;19.62;12.58;;;;;;;21.12;100.00;99660.80;1768533;81;21061;-79
2022/08/09 00:45:08;;;;;;;21.23;12.40;;;;;;;21.10;100.00;99647.84;1768730;81;20982;-79
2022/08/09 00:47:36;;;;;;;20.48;12.23;;;;;;;21.06;100.00;99637.06;1768677;81;21503;-79
2022/08/09 00:50:03;;;;;;;21.25;11.60;;;;;;;21.03;100.00;99629.31;1768485;80;21582;-79
2022/08/09 00:52:30;;;;;;;24.70;12.03;;;;;;;21.01;100.00;99617.19;1768817;81;21068;-79
2022/08/09 00:55:00;;;;;;;20.60;12.15;;;;;;;21.00;100.00;99613.31;1768499;81;21061;-79
2022/08/09 00:57:31;;;;;;;21.55;13.22;;;;;;;20.97;100.00;99602.30;1768541;81;21053;-80
2022/08/09 00:59:58;;;;;;;21.60;12.78;;;;;;;20.95;100.00;99596.77;1768607;81;21029;-80
2022/08/09 01:02:28;;;;;;;22.93;13.48;;;;;;;20.92;100.00;99587.64;1768804;81;20949;-79
2022/08/09 01:05:06;;;;;;;20.17;13.22;;;;;;;20.91;100.00;99583.22;1768490;81;21037;-80
2022/08/09 01:07:45;;;;;;;22.17;13.95;;;;;;;20.88;100.00;99573.58;1768308;81;21551;-80
2022/08/09 01:10:43;;;;;;;22.58;14.13;;;;;;;20.85;100.00;99565.83;1766814;81;20990;-80
2022/08/09 01:13:18;;;;;;;20.80;13.53;;;;;;;20.82;100.00;99563.56;1768419;81;21057;-80
2022/08/09 01:15:46;;;;;;;22.65;13.35;;;;;;;20.79;100.00;99558.05;1768659;81;21539;-79
2022/08/09 01:18:17;;;;;;;24.15;14.30;;;;;;;20.75;100.00;99552.77;1768699;81;21617;-79
2022/08/09 01:20:54;;;;;;;20.55;14.20;;;;;;;20.72;100.00;99544.20;1768718;81;21021;-79
2022/08/09 01:23:27;;;;;;;20.08;13.18;;;;;;;20.70;100.00;99538.09;1768516;81;21072;-79
2022/08/09 01:26:08;;;;;;;22.73;14.75;;;;;;;20.68;100.00;99538.34;1768937;81;21072;-79
2022/08/09 01:28:35;;;;;;;23.73;14.55;;;;;;;20.65;100.00;99525.12;1762932;81;21045;-79
2022/08/09 01:31:02;;;;;;;23.90;14.20;;;;;;;20.63;100.00;99523.18;1768648;81;20990;-79
2022/08/09 01:33:34;;;;;;;20.52;13.28;;;;;;;20.61;100.00;99519.80;1768510;81;21646;-79
2022/08/09 01:36:05;;;;;;;20.97;13.25;;;;;;;20.59;100.00;99510.45;1767898;80;21061;-79
2022/08/09 01:38:35;;;;;;;20.65;12.40;;;;;;;20.57;100.00;99505.73;1732473;83;21098;-79
2022/08/09 01:41:07;;;;;;;23.87;12.82;;;;;;;20.52;100.00;99494.66;1732805;83;21000;-79
2022/08/09 01:43:36;;;;;;;21.43;12.97;;;;;;;20.48;100.00;99497.07;1732638;82;21122;-79
2022/08/09 01:46:03;;;;;;;19.40;12.03;;;;;;;20.45;100.00;99492.62;1732974;83;21027;-79
2022/08/09 01:48:30;;;;;;;21.20;12.88;;;;;;;20.40;100.00;99483.78;1732908;83;21466;-79
2022/08/09 01:50:56;;;;;;;19.67;12.45;;;;;;;20.38;100.00;99480.97;1732811;83;21055;-79
2022/08/09 01:53:23;;;;;;;22.10;13.93;;;;;;;20.35;100.00;99474.63;1732841;83;21043;-80
2022/08/09 01:55:50;;;;;;;21.02;13.75;;;;;;;20.33;100.00;99467.16;1732836;83;21044;-79
2022/08/09 01:58:16;;;;;;;26.73;14.65;;;;;;;20.28;100.00;99456.39;1751788;81;20978;-79
2022/08/09 02:00:43;;;;;;;23.32;14.00;;;;;;;20.26;100.00;99448.95;1768748;81;21025;-79
2022/08/09 02:03:10;;;;;;;22.27;14.25;;;;;;;20.25;100.00;99435.47;1768500;81;20998;-79
2022/08/09 02:05:37;;;;;;;24.15;15.18;;;;;;;20.21;100.00;99417.30;1768609;81;21029;-80
2022/08/09 02:08:08;;;;;;;23.02;14.15;;;;;;;20.18;100.00;99393.09;1768445;81;21504;-79
2022/08/09 02:10:39;;;;;;;22.37;14.50;;;;;;;20.15;100.00;99357.93;1704123;84;21062;-79
2022/08/09 02:13:07;;;;;;;22.50;14.13;;;;;;;20.11;100.00;99323.81;1704005;84;21057;-79
2022/08/09 02:15:37;;;;;;;23.35;14.68;;;;;;;20.08;100.00;99312.81;1704321;84;21573;-79
2022/08/09 02:18:05;;;;;;;26.40;15.00;;;;;;;20.06;100.00;99293.55;1680820;84;21038;-79
2022/08/09 02:20:36;;;;;;;24.25;14.30;;;;;;;20.05;100.00;99289.16;1704190;84;21544;-79
2022/08/09 02:23:11;;;;;;;24.07;14.35;;;;;;;20.02;100.00;99276.76;1700788;84;21058;-79
2022/08/09 02:25:40;;;;;;;23.70;14.10;;;;;;;19.98;100.00;99268.75;1704150;83;21086;-79
2022/08/09 02:28:26;;;;;;;22.10;14.55;;;;;;;19.96;100.00;99269.55;1704188;84;21033;-79
2022/08/09 02:31:04;;;;;;;21.80;13.35;;;;;;;19.94;100.00;99268.13;1704214;83;21101;-79
2022/08/09 02:33:35;;;;;;;22.58;13.15;;;;;;;19.90;100.00;99265.05;1646653;87;21106;-80
2022/08/09 02:36:02;;;;;;;21.52;12.28;;;;;;;19.86;100.00;99277.06;1648921;86;21023;-79
2022/08/09 02:38:34;;;;;;;20.68;12.55;;;;;;;19.81;100.00;99264.64;1655033;87;21004;-80
2022/08/09 02:41:10;;;;;;;18.05;11.43;;;;;;;19.78;100.00;99269.80;1654970;87;21055;-79
2022/08/09 02:43:37;;;;;;;20.57;11.80;;;;;;;;;;1655012;87;21043;-79
2022/08/09 02:46:04;;;;;;;19.55;12.07;;;;;;;19.72;100.00;99272.45;1655134;87;21107;-79
2022/08/09 02:48:31;;;;;;;18.70;11.35;;;;;;;19.72;100.00;99276.57;1655031;87;21011;-80
2022/08/09 02:50:59;;;;;;;21.15;13.83;;;;;;;19.71;100.00;99274.90;1631863;87;21091;-79
2022/08/09 02:53:30;;;;;;;27.27;16.70;;;;;;;19.72;100.00;99269.72;1655177;87;21541;-79
2022/08/09 02:55:58;;;;;;;33.10;17.98;;;;;;;19.73;100.00;99267.27;1655101;87;21526;-80
2022/08/09 02:58:27;;;;;;;32.13;18.82;;;;;;;19.74;100.00;99274.95;1674700;85;21004;-80
2022/08/09 03:00:53;;;;;;;27.87;18.07;;;;;;;;;;1688437;85;21070;-80
2022/08/09 03:03:20;;;;;;;29.52;18.20;;;;;;;19.79;100.00;99275.59;1665324;85;21016;-80
2022/08/09 03:05:49;;;;;;;27.77;17.73;;;;;;;19.81;100.00;99291.25;1691118;85;21005;-78
2022/08/09 03:08:16;;;;;;;29.15;18.15;;;;;;;19.79;100.00;99285.19;1670333;85;21043;-80
2022/08/09 03:10:44;;;;;;;27.82;16.82;;;;;;;19.81;100.00;99283.02;1643264;86;21019;-80
2022/08/09 03:13:13;;;;;;;25.95;16.00;;;;;;;19.82;100.00;99275.92;1643647;86;21064;-80
2022/08/09 03:15:41;;;;;;;23.35;16.23;;;;;;;19.83;100.00;99280.34;1665719;86;21059;-80
2022/08/09 03:18:09;;;;;;;25.12;15.70;;;;;;;19.85;100.00;99276.80;1665683;86;21478;-80
2022/08/09 03:20:36;;;;;;;25.00;14.90;;;;;;;19.85;100.00;99281.46;1665752;86;21027;-80
2022/08/09 03:23:03;;;;;;;23.35;14.07;;;;;;;19.84;100.00;99288.84;1665755;86;21068;-80
2022/08/09 03:25:31;;;;;;;22.22;14.38;;;;;;;19.82;100.00;99284.14;1665506;86;21506;-80
2022/08/09 03:27:59;;;;;;;23.25;13.98;;;;;;;19.82;100.00;99284.14;1665838;86;20976;-80
2022/08/09 03:30:27;;;;;;;19.90;13.58;;;;;;;19.85;100.00;99286.95;1694495;84;21098;-80
2022/08/09 03:32:54;;;;;;;22.62;13.20;;;;;;;19.86;100.00;99281.73;1724330;83;21026;-80
2022/08/09 03:35:20;;;;;;;21.97;13.00;;;;;;;19.89;100.00;99279.87;1754334;82;21032;-80
2022/08/09 03:37:47;;;;;;;19.65;12.55;;;;;;;19.91;100.00;99280.44;1738444;82;21062;-80
2022/08/09 03:40:14;;;;;;;18.92;13.05;;;;;;;19.93;100.00;99278.83;1734051;82;21057;-80
2022/08/09 03:42:41;;;;;;;18.48;12.23;;;;;;;19.94;100.00;99274.46;1739170;82;20962;-80
2022/08/09 03:45:09;;;;;;;21.52;12.35;;;;;;;19.96;100.00;99275.03;1738943;82;21484;-80
2022/08/09 03:47:37;;;;;;;21.80;12.78;;;;;;;19.99;100.00;99277.28;1738979;82;21465;-80
2022/08/09 03:50:07;;;;;;;17.62;11.85;;;;;;;20.00;100.00;99272.06;1738923;82;21503;-80
2022/08/09 03:52:35;;;;;;;18.98;12.90;;;;;;;20.03;100.00;99277.61;1675406;85;21057;-80
2022/08/09 03:55:03;;;;;;;20.12;12.95;;;;;;;20.05;100.00;99280.93;1675596;86;21010;-80
2022/08/09 03:57:30;;;;;;;19.73;13.60;;;;;;;20.06;100.00;99275.19;1675351;86;21120;-80
2022/08/09 03:59:57;;;;;;;22.90;14.07;;;;;;;20.10;100.00;99281.01;1674894;86;21565;-81
2022/08/09 04:02:25;;;;;;;25.30;15.28;;;;;;;20.13;100.00;99279.66;1675228;86;21016;-80
2022/08/09 04:04:52;;;;;;;23.42;16.00;;;;;;;20.17;100.00;99282.17;1675030;86;21056;-80
2022/08/09 04:07:20;;;;;;;27.32;16.80;;;;;;;20.21;100.00;99276.49;1675104;86;21110;-80
2022/08/09 04:09:47;;;;;;;25.97;17.48;;;;;;;20.25;100.00;99280.38;1695580;83;21070;-80
2022/08/09 04:12:26;;;;;;;24.98;17.40;;;;;;;20.29;100.00;99280.16;1719270;83;21023;-80
2022/08/09 04:14:53;;;;;;;30.50;17.00;;;;;;;20.35;100.00;99283.83;1719143;83;21066;-80
2022/08/09 04:17:19;;;;;;;29.50;17.75;;;;;;;20.40;100.00;99277.85;1719249;83;20998;-80
2022/08/09 04:19:47;;;;;;;22.10;16.02;;;;;;;20.47;100.00;99274.93;1719384;83;21057;-81
2022/08/09 04:22:14;;;;;;;27.25;15.70;;;;;;;20.56;100.00;99284.93;1719564;83;21077;-81
2022/08/09 04:24:41;;;;;;;24.02;16.15;;;;;;;20.63;100.00;99280.92;1719378;83;21574;-81
2022/08/09 04:27:08;;;;;;;23.07;14.98;;;;;;;20.72;100.00;99281.31;1719495;83;21513;-81
2022/08/09 04:29:35;;;;;;;22.10;14.85;;;;;;;20.82;100.00;99283.33;1719175;83;21038;-81
2022/08/09 04:32:02;;;;;;;21.02;14.25;;;;;;;20.93;100.00;99281.00;1719446;83;20975;-80
2022/08/09 04:34:32;;;;;;;24.75;15.20;;;;;;;21.04;100.00;99274.52;1719143;83;21046;-81
2022/08/09 04:36:57;;;;;;;23.57;14.75;;;;;;;21.17;100.00;99287.56;1721242;83;21150;-81
2022/08/09 04:39:24;;;;;;;24.90;15.00;;;;;;;21.31;100.00;99284.68;1725259;83;21117;-81
2022/08/09 04:41:50;;;;;;;25.48;14.85;;;;;;;21.43;100.00;99279.03;1725177;83;21569;-80
2022/08/09 04:44:17;;;;;;;41.98;15.38;;;;;;;21.59;100.00;99286.90;1725324;83;21044;-81
2022/08/09 04:46:44;;;;;;;23.65;15.08;;;;;;;21.75;100.00;99287.86;1725253;83;21086;-81
2022/08/09 04:49:10;;;;;;;26.87;14.50;;;;;;;21.91;100.00;99297.06;1734453;82;21077;-82
2022/08/09 04:51:39;;;;;;;25.37;13.75;;;;;;;22.10;100.00;99301.60;1745751;82;21025;-80
2022/08/09 04:54:06;;;;;;;22.65;13.72;;;;;;;22.31;100.00;99310.30;1745712;82;21022;-81
2022/08/09 04:56:33;;;;;;;33.42;14.50;;;;;;;22.55;100.00;99328.59;1776530;78;21009;-82
2022/08/09 04:59:00;;;;;;;71.33;43.75;;;;;;;22.80;100.00;99346.35;1805387;78;20988;-81
2022/08/09 05:01:26;;;;;;;122.60;102.30;;;;;;;23.05;100.00;99369.08;1822126;79;20968;-81
2022/08/09 05:03:53;;;;;;;55.12;35.28;;;;;;;23.31;100.00;99374.70;1821639;79;20940;-81
2022/08/09 05:06:20;;;;;;;138.30;124.27;;;;;;;23.54;100.00;99393.25;1817441;79;20981;-78
2022/08/09 05:08:47;;;;;;;293.93;264.95;;;;;;;23.75;100.00;99405.98;1816821;79;21055;-79
2022/08/09 05:11:15;;;;;;;55.58;48.63;;;;;;;24.00;100.00;99410.72;1816926;79;21067;-82
2022/08/09 05:13:42;;;;;;;43.55;38.08;;;;;;;24.25;100.00;99423.70;1817354;79;21008;-82
2022/08/09 05:16:09;;;;;;;88.12;73.72;;;;;;;24.50;100.00;99437.23;1817647;79;21464;-80
2022/08/09 05:18:35;;;;;;;197.80;177.65;;;;;;;24.71;100.00;99452.45;1817490;79;21017;-82
2022/08/09 05:21:02;;;;;;;66.37;57.85;;;;;;;24.93;100.00;99462.63;1817263;79;21020;-81
2022/08/09 05:23:29;;;;;;;29.65;23.20;;;;;;;25.18;100.00;99471.97;1825371;78;21055;-81
2022/08/09 05:25:56;;;;;;;27.07;17.05;;;;;;;25.42;100.00;99494.30;1808728;79;20977;-81
2022/08/09 05:28:23;;;;;;;29.42;21.50;;;;;;;25.65;100.00;99513.58;1794981;79;21006;-80
2022/08/09 05:30:49;;;;;;;291.55;263.00;;;;;;;25.89;100.00;99528.98;1795919;80;21511;-80
2022/08/09 05:33:16;;;;;;;45.75;40.60;;;;;;;26.10;100.00;99539.95;1795449;80;21496;-80
2022/08/09 05:35:43;;;;;;;77.70;69.70;;;;;;;26.30;100.00;99560.63;1804663;79;21014;-82
2022/08/09 05:38:10;;;;;;;26.97;20.25;;;;;;;26.48;100.00;99593.75;1819397;78;21012;-82
2022/08/09 05:40:37;;;;;;;27.22;15.90;;;;;;;26.63;100.00;99625.29;1815881;79;21522;-81
2022/08/09 05:43:04;;;;;;;27.27;14.80;;;;;;;26.71;100.00;99637.17;1803267;79;20977;-80
2022/08/09 05:45:32;;;;;;;33.13;21.80;;;;;;;26.86;100.00;99641.76;1816664;79;20973;-81
2022/08/09 05:47:59;;;;;;;22.55;12.75;;;;;;;27.04;100.00;99652.74;1819237;79;21004;-81
2022/08/09 05:50:27;;;;;;;22.93;11.08;;;;;;;27.24;100.00;99671.16;1819742;79;21012;-82
2022/08/09 05:52:54;;;;;;;16.48;10.03;;;;;;;27.43;100.00;99686.56;1819727;79;20984;-80
2022/08/09 05:55:21;;;;;;;55.28;40.78;;;;;;;27.54;100.00;99700.61;1819512;79;20972;-81
2022/08/09 05:57:48;;;;;;;41.23;32.42;;;;;;;27.67;100.00;99717.71;1810773;79;21023;-79
2022/08/09 06:00:16;;;;;;;23.32;10.88;;;;;;;27.81;100.00;99736.73;1793687;80;20996;-80
2022/08/09 06:02:43;;;;;;;49.08;40.35;;;;;;;27.94;100.00;99745.80;1793314;80;21522;-81
2022/08/09 06:05:10;;;;;;;54.85;48.45;;;;;;;28.13;100.00;99743.08;1793491;80;21028;-78
2022/08/09 06:07:38;;;;;;;22.13;14.53;;;;;;;28.34;100.00;99755.36;1797216;79;21008;-77
2022/08/09 06:10:05;;;;;;;20.85;11.45;;;;;;;28.55;100.00;99767.91;1820481;79;20993;-77
2022/08/09 06:12:34;;;;;;;17.42;9.93;;;;;;;28.77;100.00;99790.16;1817463;79;21004;-80
2022/08/09 06:15:02;;;;;;;29.87;9.40;;;;;;;28.93;100.00;99794.41;1817037;79;20976;-77
2022/08/09 06:17:29;;;;;;;21.37;8.78;;;;;;;29.10;100.00;99807.79;1786101;79;21617;-77
2022/08/09 06:19:56;;;;;;;24.60;10.43;;;;;;;29.30;100.00;99823.38;1816427;79;20984;-77
2022/08/09 06:22:23;;;;;;;22.87;12.80;;;;;;;29.50;100.00;99837.58;1816078;79;21031;-77
2022/08/09 06:24:50;;;;;;;24.95;13.68;;;;;;;29.72;100.00;99852.84;1815363;79;20981;-77
2022/08/09 06:27:17;;;;;;;20.60;11.80;;;;;;;29.95;100.00;99866.42;1785130;79;21063;-77
2022/08/09 06:29:54;;;;;;;64.37;57.05;;;;;;;30.13;100.00;99937.20;1815229;79;21083;-80
2022/08/09 06:32:23;;;;;;;37.35;23.87;;;;;;;30.26;100.00;100003.35;1812485;79;21039;-77
2022/08/09 06:34:50;;;;;;;28.95;17.67;;;;;;;30.46;100.00;100012.55;1814135;79;21021;-80
2022/08/09 06:37:16;;;;;;;27.45;18.15;;;;;;;30.66;100.00;100044.27;1816394;79;21544;-77
2022/08/09 06:39:43;;;;;;;31.25;18.67;;;;;;;30.83;100.00;100059.62;1817657;79;21034;-76
2022/08/09 06:42:10;;;;;;;43.38;30.80;;;;;;;31.00;100.00;100089.77;1817894;79;20995;-75
2022/08/09 06:44:37;;;;;;;25.10;16.00;;;;;;;31.17;100.00;100097.56;1817075;79;21030;-78
2022/08/09 06:47:04;;;;;;;123.10;106.58;;;;;;;31.26;100.00;100114.44;1817354;79;20994;-77
2022/08/09 06:49:31;;;;;;;35.15;21.23;;;;;;;31.32;100.00;100119.60;1817182;79;21014;-77
2022/08/09 06:51:57;;;;;;;22.05;12.68;;;;;;;31.43;100.00;100124.45;1817318;79;20979;-77
2022/08/09 06:54:24;;;;;;;20.50;14.18;;;;;;;31.56;100.00;100132.61;1819145;79;21501;-77
2022/08/09 06:56:51;;;;;;;94.50;84.92;;;;;;;31.71;100.00;100128.09;1819730;79;21481;-78
2022/08/09 06:59:17;;;;;;;27.95;19.48;;;;;;;31.89;100.00;100116.56;1796071;79;21582;-77
2022/08/09 07:01:44;;;;;;;18.57;9.50;;;;;;;32.09;100.00;100118.11;1795306;80;20994;-77
2022/08/09 07:04:11;;;;;;;18.42;7.03;;;;;;;32.27;100.00;100130.29;1800758;79;21537;-78
2022/08/09 07:06:38;;;;;;;18.30;6.40;;;;;;;32.37;100.00;100151.63;1819300;79;21113;-77
2022/08/09 07:09:05;;;;;;;15.98;6.85;;;;;;;32.33;100.00;100140.78;1819590;79;21048;-78
2022/08/09 07:11:32;;;;;;;15.28;6.97;;;;;;;32.42;100.00;100148.71;1819054;79;21071;-77
2022/08/09 07:13:59;;;;;;;22.85;12.00;;;;;;;32.61;100.00;100151.94;1819468;79;21025;-77
2022/08/09 07:16:26;;;;;;;24.43;12.28;;;;;;;32.81;100.00;100152.86;1819273;79;21029;-78
2022/08/09 07:18:52;;;;;;;16.70;8.23;;;;;;;33.03;100.00;100141.39;1819415;79;21000;-78
2022/08/09 07:21:19;;;;;;;16.32;7.58;;;;;;;33.22;100.00;100138.38;1819508;79;20969;-77
2022/08/09 07:23:45;;;;;;;11.85;6.28;;;;;;;33.45;100.00;100138.60;1819771;79;20973;-77
2022/08/09 07:26:12;;;;;;;16.95;6.08;;;;;;;33.58;100.00;100150.03;1819703;79;21002;-80
2022/08/09 07:28:40;;;;;;;14.70;6.70;;;;;;;33.67;100.00;100160.73;1819545;79;20984;-75
2022/08/09 07:31:07;;;;;;;14.13;7.05;;;;;;;33.57;100.00;100166.00;1820184;79;20968;-76
2022/08/09 07:33:36;;;;;;;31.65;20.25;;;;;;;33.47;100.00;100162.92;1819527;79;21522;-80
2022/08/09 07:36:03;;;;;;;97.42;88.15;;;;;;;33.44;100.00;100154.34;1820085;79;21012;-78
